Ana Sayfa
METAR-TAF:

METAR-TAF

Havaalanları :

Harbor Springs Municipal Airport

Harbor Springs, Michigan, Amerika Birleşik Devletleri

Enlem: 45-25-32N, Boylam: 084-54-48W, yükseklik: 209 m

Güncel hava durumu gözlemi

Rapor saat 10:15 UTC de 20 dakika önce yapıldı.
Sakin rüzgar
Sıcaklık 14°C
Nem 82%
Basınç 1017 hPa
Görüş mesafesi: 16.1 km
5000 ft yükseklikte çok bulutlu

METAR: KMGN 221015Z AUTO 00000KT 10SM OVC050 14/11 A3003 RMK AO2 T01460115

Saat: 06:35 (10:35 UTC)


TAF: eksik

4.000'den fazla havaalanı için hava durumu gözlemleri ve tahminleri (METAR ve TAF raporları).

Kullanılabilir istasyonlar harita üzerinde sarı ve kırmızı noktalarla gösterilir.

İstasyonun adını görmek için fareyi noktanın üzerinde gezdirin.

Sonrasında hava gözlem ve tahminlerini görmek için tıklayın.

Haritayı değiştirmek için: yaklaştırmak için siyah artı işaretli yeşil düğmeye ve uzaklaştırmak için de eksi işaretli düğmeye hızla tıklayın; bitişik haritalar için yeşil okları kullanın.


METAR-TAF: